sensor_id;sensor_type;location;lat;lon;timestamp;P1;durP1;ratioP1;P2;durP2;ratioP2
76939;SDS011;65885;55.848;35.916;2023-04-03T00:00:19;1.60;;;1.00;;
76939;SDS011;65885;55.848;35.916;2023-04-03T00:02:46;1.48;;;0.90;;
76939;SDS011;65885;55.848;35.916;2023-04-03T00:05:14;1.00;;;0.90;;
76939;SDS011;65885;55.848;35.916;2023-04-03T00:07:43;1.52;;;0.95;;
76939;SDS011;65885;55.848;35.916;2023-04-03T00:10:10;0.80;;;0.80;;
76939;SDS011;65885;55.848;35.916;2023-04-03T00:12:39;1.05;;;0.90;;
76939;SDS011;65885;55.848;35.916;2023-04-03T00:15:06;1.17;;;0.93;;
76939;SDS011;65885;55.848;35.916;2023-04-03T00:17:34;1.30;;;0.98;;
76939;SDS011;65885;55.848;35.916;2023-04-03T00:20:02;1.42;;;0.95;;
76939;SDS011;65885;55.848;35.916;2023-04-03T00:22:31;1.63;;;0.88;;
76939;SDS011;65885;55.848;35.916;2023-04-03T00:25:00;1.85;;;1.30;;
76939;SDS011;65885;55.848;35.916;2023-04-03T00:27:28;1.15;;;1.05;;
76939;SDS011;65885;55.848;35.916;2023-04-03T00:29:56;0.90;;;0.77;;
76939;SDS011;65885;55.848;35.916;2023-04-03T00:32:23;1.17;;;0.70;;
76939;SDS011;65885;55.848;35.916;2023-04-03T00:34:51;1.10;;;0.80;;
76939;SDS011;65885;55.848;35.916;2023-04-03T00:37:18;2.15;;;1.25;;
76939;SDS011;65885;55.848;35.916;2023-04-03T00:39:45;0.93;;;0.70;;
76939;SDS011;65885;55.848;35.916;2023-04-03T00:42:14;1.23;;;0.80;;
76939;SDS011;65885;55.848;35.916;2023-04-03T00:47:51;1.25;;;0.80;;
76939;SDS011;65885;55.848;35.916;2023-04-03T00:50:19;1.02;;;0.93;;
76939;SDS011;65885;55.848;35.916;2023-04-03T00:52:47;1.38;;;0.80;;
76939;SDS011;65885;55.848;35.916;2023-04-03T00:55:15;1.25;;;0.80;;
76939;SDS011;65885;55.848;35.916;2023-04-03T00:57:44;2.03;;;1.05;;
76939;SDS011;65885;55.848;35.916;2023-04-03T01:00:14;1.13;;;0.90;;
76939;SDS011;65885;55.848;35.916;2023-04-03T01:02:45;2.05;;;1.23;;
76939;SDS011;65885;55.848;35.916;2023-04-03T01:05:12;1.00;;;0.77;;
76939;SDS011;65885;55.848;35.916;2023-04-03T01:07:43;1.13;;;1.00;;
76939;SDS011;65885;55.848;35.916;2023-04-03T01:10:12;1.20;;;0.90;;
76939;SDS011;65885;55.848;35.916;2023-04-03T01:12:43;0.90;;;0.70;;
76939;SDS011;65885;55.848;35.916;2023-04-03T01:15:14;1.20;;;0.85;;
76939;SDS011;65885;55.848;35.916;2023-04-03T01:17:44;1.50;;;0.80;;
76939;SDS011;65885;55.848;35.916;2023-04-03T01:23:13;1.75;;;1.20;;
76939;SDS011;65885;55.848;35.916;2023-04-03T01:25:50;1.65;;;1.05;;
76939;SDS011;65885;55.848;35.916;2023-04-03T01:28:22;2.47;;;1.30;;
76939;SDS011;65885;55.848;35.916;2023-04-03T01:30:51;2.13;;;1.10;;
76939;SDS011;65885;55.848;35.916;2023-04-03T01:33:26;1.42;;;0.85;;
76939;SDS011;65885;55.848;35.916;2023-04-03T01:35:53;1.63;;;1.15;;
76939;SDS011;65885;55.848;35.916;2023-04-03T01:38:21;1.02;;;0.80;;
76939;SDS011;65885;55.848;35.916;2023-04-03T01:40:48;1.98;;;1.00;;
76939;SDS011;65885;55.848;35.916;2023-04-03T01:43:16;1.30;;;0.82;;
76939;SDS011;65885;55.848;35.916;2023-04-03T01:45:43;1.30;;;0.88;;
76939;SDS011;65885;55.848;35.916;2023-04-03T01:48:11;0.90;;;0.80;;
76939;SDS011;65885;55.848;35.916;2023-04-03T01:50:41;1.08;;;0.88;;
76939;SDS011;65885;55.848;35.916;2023-04-03T01:53:08;1.63;;;0.85;;
76939;SDS011;65885;55.848;35.916;2023-04-03T01:55:36;0.73;;;0.73;;
76939;SDS011;65885;55.848;35.916;2023-04-03T01:58:03;1.17;;;0.90;;
76939;SDS011;65885;55.848;35.916;2023-04-03T02:00:30;1.60;;;0.82;;
76939;SDS011;65885;55.848;35.916;2023-04-03T02:02:58;1.15;;;0.70;;
76939;SDS011;65885;55.848;35.916;2023-04-03T02:05:26;1.42;;;0.90;;
76939;SDS011;65885;55.848;35.916;2023-04-03T02:07:55;1.23;;;0.95;;
76939;SDS011;65885;55.848;35.916;2023-04-03T02:10:22;1.15;;;0.90;;
76939;SDS011;65885;55.848;35.916;2023-04-03T02:12:50;1.15;;;0.75;;
76939;SDS011;65885;55.848;35.916;2023-04-03T02:15:17;1.33;;;0.90;;
76939;SDS011;65885;55.848;35.916;2023-04-03T02:17:45;1.15;;;0.80;;
76939;SDS011;65885;55.848;35.916;2023-04-03T02:20:12;0.88;;;0.65;;
76939;SDS011;65885;55.848;35.916;2023-04-03T02:22:40;1.13;;;0.90;;
76939;SDS011;65885;55.848;35.916;2023-04-03T02:25:09;1.83;;;1.00;;
76939;SDS011;65885;55.848;35.916;2023-04-03T02:27:37;0.88;;;0.82;;
76939;SDS011;65885;55.848;35.916;2023-04-03T02:30:05;1.02;;;0.90;;
76939;SDS011;65885;55.848;35.916;2023-04-03T02:32:34;0.82;;;0.75;;
76939;SDS011;65885;55.848;35.916;2023-04-03T02:35:02;1.52;;;1.00;;
76939;SDS011;65885;55.848;35.916;2023-04-03T02:37:30;1.60;;;1.25;;
76939;SDS011;65885;55.848;35.916;2023-04-03T02:39:58;1.25;;;0.75;;
76939;SDS011;65885;55.848;35.916;2023-04-03T02:42:27;1.25;;;0.88;;
76939;SDS011;65885;55.848;35.916;2023-04-03T02:44:54;2.35;;;1.50;;
76939;SDS011;65885;55.848;35.916;2023-04-03T02:47:21;1.90;;;1.35;;
76939;SDS011;65885;55.848;35.916;2023-04-03T02:49:49;1.85;;;1.02;;
76939;SDS011;65885;55.848;35.916;2023-04-03T02:52:18;1.42;;;0.82;;
76939;SDS011;65885;55.848;35.916;2023-04-03T02:54:45;1.55;;;1.27;;
76939;SDS011;65885;55.848;35.916;2023-04-03T02:57:13;1.40;;;0.85;;
76939;SDS011;65885;55.848;35.916;2023-04-03T02:59:42;1.45;;;0.90;;
76939;SDS011;65885;55.848;35.916;2023-04-03T03:02:10;1.65;;;0.90;;
76939;SDS011;65885;55.848;35.916;2023-04-03T03:04:37;1.85;;;0.95;;
76939;SDS011;65885;55.848;35.916;2023-04-03T03:07:05;1.05;;;0.70;;
76939;SDS011;65885;55.848;35.916;2023-04-03T03:09:32;1.17;;;0.82;;
76939;SDS011;65885;55.848;35.916;2023-04-03T03:11:59;2.00;;;1.00;;
76939;SDS011;65885;55.848;35.916;2023-04-03T03:14:27;1.20;;;0.90;;
76939;SDS011;65885;55.848;35.916;2023-04-03T03:16:56;1.55;;;0.98;;
76939;SDS011;65885;55.848;35.916;2023-04-03T03:19:23;1.60;;;1.00;;
76939;SDS011;65885;55.848;35.916;2023-04-03T03:21:50;1.40;;;1.10;;
76939;SDS011;65885;55.848;35.916;2023-04-03T03:24:18;1.65;;;0.90;;
76939;SDS011;65885;55.848;35.916;2023-04-03T03:26:45;2.03;;;0.95;;
76939;SDS011;65885;55.848;35.916;2023-04-03T03:29:13;1.88;;;1.25;;
76939;SDS011;65885;55.848;35.916;2023-04-03T03:31:40;2.25;;;1.40;;
76939;SDS011;65885;55.848;35.916;2023-04-03T03:34:09;2.50;;;1.38;;
76939;SDS011;65885;55.848;35.916;2023-04-03T03:36:37;1.73;;;1.30;;
76939;SDS011;65885;55.848;35.916;2023-04-03T03:39:04;1.50;;;1.00;;
76939;SDS011;65885;55.848;35.916;2023-04-03T03:41:31;1.65;;;1.10;;
76939;SDS011;65885;55.848;35.916;2023-04-03T03:43:59;1.90;;;1.33;;
76939;SDS011;65885;55.848;35.916;2023-04-03T03:46:26;2.13;;;1.13;;
76939;SDS011;65885;55.848;35.916;2023-04-03T03:48:53;2.25;;;1.30;;
76939;SDS011;65885;55.848;35.916;2023-04-03T03:51:22;3.10;;;1.20;;
76939;SDS011;65885;55.848;35.916;2023-04-03T03:53:49;1.80;;;1.23;;
76939;SDS011;65885;55.848;35.916;2023-04-03T03:56:17;2.50;;;1.33;;
76939;SDS011;65885;55.848;35.916;2023-04-03T03:58:45;1.63;;;1.10;;
76939;SDS011;65885;55.848;35.916;2023-04-03T04:01:13;2.67;;;1.38;;
76939;SDS011;65885;55.848;35.916;2023-04-03T04:03:40;2.53;;;1.27;;
76939;SDS011;65885;55.848;35.916;2023-04-03T04:06:07;2.38;;;1.40;;
76939;SDS011;65885;55.848;35.916;2023-04-03T04:08:37;2.03;;;1.33;;
76939;SDS011;65885;55.848;35.916;2023-04-03T04:11:05;2.40;;;1.55;;
76939;SDS011;65885;55.848;35.916;2023-04-03T04:13:32;2.72;;;1.40;;
76939;SDS011;65885;55.848;35.916;2023-04-03T04:16:01;3.05;;;1.88;;
76939;SDS011;65885;55.848;35.916;2023-04-03T04:18:28;2.50;;;1.50;;
76939;SDS011;65885;55.848;35.916;2023-04-03T04:20:56;3.03;;;1.58;;
76939;SDS011;65885;55.848;35.916;2023-04-03T04:23:23;2.88;;;1.70;;
76939;SDS011;65885;55.848;35.916;2023-04-03T04:25:52;3.92;;;1.70;;
76939;SDS011;65885;55.848;35.916;2023-04-03T04:28:20;4.07;;;1.95;;
76939;SDS011;65885;55.848;35.916;2023-04-03T04:30:47;3.10;;;1.92;;
76939;SDS011;65885;55.848;35.916;2023-04-03T04:33:15;3.50;;;2.30;;
76939;SDS011;65885;55.848;35.916;2023-04-03T04:35:42;3.20;;;1.80;;
76939;SDS011;65885;55.848;35.916;2023-04-03T04:38:09;3.15;;;1.83;;
76939;SDS011;65885;55.848;35.916;2023-04-03T04:40:37;3.50;;;1.92;;
76939;SDS011;65885;55.848;35.916;2023-04-03T04:43:06;4.95;;;2.35;;
76939;SDS011;65885;55.848;35.916;2023-04-03T04:45:33;3.17;;;1.88;;
76939;SDS011;65885;55.848;35.916;2023-04-03T04:48:00;4.28;;;2.30;;
76939;SDS011;65885;55.848;35.916;2023-04-03T04:50:28;3.80;;;2.25;;
76939;SDS011;65885;55.848;35.916;2023-04-03T04:52:55;3.38;;;2.05;;
76939;SDS011;65885;55.848;35.916;2023-04-03T04:55:22;3.80;;;1.98;;
76939;SDS011;65885;55.848;35.916;2023-04-03T04:57:50;3.28;;;1.90;;
76939;SDS011;65885;55.848;35.916;2023-04-03T05:00:19;4.65;;;2.38;;
76939;SDS011;65885;55.848;35.916;2023-04-03T05:02:47;3.63;;;1.88;;
76939;SDS011;65885;55.848;35.916;2023-04-03T05:05:14;4.25;;;2.22;;
76939;SDS011;65885;55.848;35.916;2023-04-03T05:07:42;3.25;;;1.98;;
76939;SDS011;65885;55.848;35.916;2023-04-03T05:10:10;3.92;;;2.40;;
76939;SDS011;65885;55.848;35.916;2023-04-03T05:12:38;4.22;;;2.40;;
76939;SDS011;65885;55.848;35.916;2023-04-03T05:15:06;4.47;;;2.15;;
76939;SDS011;65885;55.848;35.916;2023-04-03T05:17:35;4.20;;;2.45;;
76939;SDS011;65885;55.848;35.916;2023-04-03T05:20:03;3.92;;;2.17;;
76939;SDS011;65885;55.848;35.916;2023-04-03T05:22:31;4.25;;;2.00;;
76939;SDS011;65885;55.848;35.916;2023-04-03T05:24:59;3.95;;;2.20;;
76939;SDS011;65885;55.848;35.916;2023-04-03T05:27:26;4.07;;;2.05;;
76939;SDS011;65885;55.848;35.916;2023-04-03T05:29:54;4.57;;;2.03;;
76939;SDS011;65885;55.848;35.916;2023-04-03T05:32:38;3.47;;;2.20;;
76939;SDS011;65885;55.848;35.916;2023-04-03T05:35:06;3.20;;;1.88;;
76939;SDS011;65885;55.848;35.916;2023-04-03T05:37:34;4.32;;;2.40;;
76939;SDS011;65885;55.848;35.916;2023-04-03T05:40:02;3.97;;;2.17;;
76939;SDS011;65885;55.848;35.916;2023-04-03T05:42:29;4.15;;;2.10;;
76939;SDS011;65885;55.848;35.916;2023-04-03T05:44:57;3.17;;;1.95;;
76939;SDS011;65885;55.848;35.916;2023-04-03T05:47:24;3.47;;;1.98;;
76939;SDS011;65885;55.848;35.916;2023-04-03T05:49:54;2.88;;;1.80;;
76939;SDS011;65885;55.848;35.916;2023-04-03T05:52:23;4.43;;;2.25;;
76939;SDS011;65885;55.848;35.916;2023-04-03T05:54:52;4.28;;;2.17;;
76939;SDS011;65885;55.848;35.916;2023-04-03T05:57:20;4.50;;;2.83;;
76939;SDS011;65885;55.848;35.916;2023-04-03T05:59:48;3.58;;;2.00;;
76939;SDS011;65885;55.848;35.916;2023-04-03T06:02:16;3.55;;;2.47;;
76939;SDS011;65885;55.848;35.916;2023-04-03T06:04:48;4.05;;;2.40;;
76939;SDS011;65885;55.848;35.916;2023-04-03T06:07:18;3.85;;;2.03;;
76939;SDS011;65885;55.848;35.916;2023-04-03T06:09:48;3.08;;;1.83;;
76939;SDS011;65885;55.848;35.916;2023-04-03T06:12:17;3.35;;;2.03;;
76939;SDS011;65885;55.848;35.916;2023-04-03T06:14:45;3.20;;;1.77;;
76939;SDS011;65885;55.848;35.916;2023-04-03T06:17:13;3.28;;;1.92;;
76939;SDS011;65885;55.848;35.916;2023-04-03T06:19:41;4.05;;;2.00;;
76939;SDS011;65885;55.848;35.916;2023-04-03T06:22:08;4.18;;;1.95;;
76939;SDS011;65885;55.848;35.916;2023-04-03T06:24:38;3.45;;;1.88;;
76939;SDS011;65885;55.848;35.916;2023-04-03T06:27:06;4.05;;;2.13;;
76939;SDS011;65885;55.848;35.916;2023-04-03T06:29:34;3.53;;;1.98;;
76939;SDS011;65885;55.848;35.916;2023-04-03T06:32:02;3.55;;;2.30;;
76939;SDS011;65885;55.848;35.916;2023-04-03T06:34:29;3.15;;;1.80;;
76939;SDS011;65885;55.848;35.916;2023-04-03T06:36:57;3.55;;;2.05;;
76939;SDS011;65885;55.848;35.916;2023-04-03T06:39:24;4.13;;;2.15;;
76939;SDS011;65885;55.848;35.916;2023-04-03T06:41:54;4.88;;;2.00;;
76939;SDS011;65885;55.848;35.916;2023-04-03T06:44:21;3.65;;;2.08;;
76939;SDS011;65885;55.848;35.916;2023-04-03T06:46:48;3.58;;;2.05;;
76939;SDS011;65885;55.848;35.916;2023-04-03T06:49:17;3.83;;;2.08;;
76939;SDS011;65885;55.848;35.916;2023-04-03T06:51:45;4.05;;;1.90;;
76939;SDS011;65885;55.848;35.916;2023-04-03T06:54:13;5.07;;;2.55;;
76939;SDS011;65885;55.848;35.916;2023-04-03T06:56:41;3.80;;;2.00;;
76939;SDS011;65885;55.848;35.916;2023-04-03T06:59:10;4.00;;;1.88;;
76939;SDS011;65885;55.848;35.916;2023-04-03T07:01:40;3.72;;;2.08;;
76939;SDS011;65885;55.848;35.916;2023-04-03T07:04:08;4.13;;;2.03;;
76939;SDS011;65885;55.848;35.916;2023-04-03T07:06:35;3.63;;;1.77;;
76939;SDS011;65885;55.848;35.916;2023-04-03T07:09:03;3.80;;;1.83;;
76939;SDS011;65885;55.848;35.916;2023-04-03T07:11:30;4.38;;;1.90;;
76939;SDS011;65885;55.848;35.916;2023-04-03T07:13:57;4.65;;;1.85;;
76939;SDS011;65885;55.848;35.916;2023-04-03T07:16:26;3.05;;;1.42;;
76939;SDS011;65885;55.848;35.916;2023-04-03T07:18:56;3.05;;;1.70;;
76939;SDS011;65885;55.848;35.916;2023-04-03T07:21:23;2.70;;;1.40;;
76939;SDS011;65885;55.848;35.916;2023-04-03T07:23:51;2.47;;;1.40;;
76939;SDS011;65885;55.848;35.916;2023-04-03T07:26:19;3.65;;;1.42;;
76939;SDS011;65885;55.848;35.916;2023-04-03T07:28:47;4.28;;;1.50;;
76939;SDS011;65885;55.848;35.916;2023-04-03T07:31:16;3.55;;;1.70;;
76939;SDS011;65885;55.848;35.916;2023-04-03T07:33:45;3.38;;;1.58;;
76939;SDS011;65885;55.848;35.916;2023-04-03T07:36:14;3.85;;;1.98;;
76939;SDS011;65885;55.848;35.916;2023-04-03T07:38:42;4.85;;;1.63;;
76939;SDS011;65885;55.848;35.916;2023-04-03T07:41:11;3.95;;;1.73;;
76939;SDS011;65885;55.848;35.916;2023-04-03T07:43:42;4.35;;;1.85;;
76939;SDS011;65885;55.848;35.916;2023-04-03T07:46:11;3.53;;;1.98;;
76939;SDS011;65885;55.848;35.916;2023-04-03T07:48:39;3.80;;;1.80;;
76939;SDS011;65885;55.848;35.916;2023-04-03T07:51:09;4.47;;;2.00;;
76939;SDS011;65885;55.848;35.916;2023-04-03T07:53:37;3.92;;;2.10;;
76939;SDS011;65885;55.848;35.916;2023-04-03T07:56:05;3.03;;;1.73;;
76939;SDS011;65885;55.848;35.916;2023-04-03T07:58:33;3.63;;;1.90;;
76939;SDS011;65885;55.848;35.916;2023-04-03T08:01:00;4.95;;;2.40;;
76939;SDS011;65885;55.848;35.916;2023-04-03T08:03:27;4.07;;;1.60;;
76939;SDS011;65885;55.848;35.916;2023-04-03T08:06:00;4.50;;;2.00;;
76939;SDS011;65885;55.848;35.916;2023-04-03T08:08:33;4.25;;;2.10;;
76939;SDS011;65885;55.848;35.916;2023-04-03T08:11:00;3.53;;;1.80;;
76939;SDS011;65885;55.848;35.916;2023-04-03T08:13:30;4.68;;;2.30;;
76939;SDS011;65885;55.848;35.916;2023-04-03T08:15:58;3.72;;;1.90;;
76939;SDS011;65885;55.848;35.916;2023-04-03T08:18:34;5.15;;;2.00;;
76939;SDS011;65885;55.848;35.916;2023-04-03T08:21:04;4.35;;;2.40;;
76939;SDS011;65885;55.848;35.916;2023-04-03T08:23:34;4.90;;;2.10;;
76939;SDS011;65885;55.848;35.916;2023-04-03T08:26:05;4.82;;;2.38;;
76939;SDS011;65885;55.848;35.916;2023-04-03T08:28:35;3.67;;;1.90;;
76939;SDS011;65885;55.848;35.916;2023-04-03T08:31:03;4.40;;;2.17;;
76939;SDS011;65885;55.848;35.916;2023-04-03T08:33:32;3.92;;;2.33;;
76939;SDS011;65885;55.848;35.916;2023-04-03T08:36:01;5.10;;;2.33;;
76939;SDS011;65885;55.848;35.916;2023-04-03T08:38:29;4.57;;;2.45;;
76939;SDS011;65885;55.848;35.916;2023-04-03T08:41:04;4.82;;;2.30;;
76939;SDS011;65885;55.848;35.916;2023-04-03T08:43:41;4.40;;;2.35;;
76939;SDS011;65885;55.848;35.916;2023-04-03T08:46:20;5.82;;;2.63;;
76939;SDS011;65885;55.848;35.916;2023-04-03T08:48:51;4.45;;;2.80;;
76939;SDS011;65885;55.848;35.916;2023-04-03T08:51:21;4.20;;;2.40;;
76939;SDS011;65885;55.848;35.916;2023-04-03T08:53:53;4.70;;;2.75;;
76939;SDS011;65885;55.848;35.916;2023-04-03T08:56:25;5.35;;;2.40;;
76939;SDS011;65885;55.848;35.916;2023-04-03T08:58:55;4.47;;;2.58;;
76939;SDS011;65885;55.848;35.916;2023-04-03T09:01:26;5.30;;;2.80;;
76939;SDS011;65885;55.848;35.916;2023-04-03T09:04:00;5.03;;;2.58;;
76939;SDS011;65885;55.848;35.916;2023-04-03T09:06:29;4.97;;;3.03;;
76939;SDS011;65885;55.848;35.916;2023-04-03T09:09:02;4.78;;;2.78;;
76939;SDS011;65885;55.848;35.916;2023-04-03T09:11:44;4.88;;;2.72;;
76939;SDS011;65885;55.848;35.916;2023-04-03T09:14:24;5.28;;;2.70;;
76939;SDS011;65885;55.848;35.916;2023-04-03T09:16:57;6.40;;;2.63;;
76939;SDS011;65885;55.848;35.916;2023-04-03T09:19:35;4.45;;;2.75;;
76939;SDS011;65885;55.848;35.916;2023-04-03T09:22:12;6.63;;;3.25;;
76939;SDS011;65885;55.848;35.916;2023-04-03T09:24:44;6.63;;;3.10;;
76939;SDS011;65885;55.848;35.916;2023-04-03T09:27:15;5.07;;;3.00;;
76939;SDS011;65885;55.848;35.916;2023-04-03T09:29:43;5.45;;;2.53;;
76939;SDS011;65885;55.848;35.916;2023-04-03T09:32:18;6.03;;;3.33;;
76939;SDS011;65885;55.848;35.916;2023-04-03T09:34:50;5.00;;;2.90;;
76939;SDS011;65885;55.848;35.916;2023-04-03T09:37:33;5.70;;;3.03;;
76939;SDS011;65885;55.848;35.916;2023-04-03T09:40:04;7.93;;;4.10;;
76939;SDS011;65885;55.848;35.916;2023-04-03T09:42:34;5.05;;;2.80;;
76939;SDS011;65885;55.848;35.916;2023-04-03T09:45:18;5.15;;;3.08;;
76939;SDS011;65885;55.848;35.916;2023-04-03T09:47:49;5.95;;;3.50;;
76939;SDS011;65885;55.848;35.916;2023-04-03T09:50:32;5.63;;;3.72;;
76939;SDS011;65885;55.848;35.916;2023-04-03T09:53:04;5.72;;;3.67;;
76939;SDS011;65885;55.848;35.916;2023-04-03T09:55:41;5.65;;;3.72;;
76939;SDS011;65885;55.848;35.916;2023-04-03T09:58:24;6.95;;;3.55;;
76939;SDS011;65885;55.848;35.916;2023-04-03T10:00:55;9.45;;;3.90;;
76939;SDS011;65885;55.848;35.916;2023-04-03T10:03:25;6.13;;;3.83;;
76939;SDS011;65885;55.848;35.916;2023-04-03T10:05:55;6.80;;;3.97;;
76939;SDS011;65885;55.848;35.916;2023-04-03T10:08:25;6.07;;;3.53;;
76939;SDS011;65885;55.848;35.916;2023-04-03T10:11:05;7.05;;;3.63;;
76939;SDS011;65885;55.848;35.916;2023-04-03T10:13:50;5.90;;;3.80;;
76939;SDS011;65885;55.848;35.916;2023-04-03T10:16:29;7.38;;;3.85;;
76939;SDS011;65885;55.848;35.916;2023-04-03T10:22:00;6.75;;;3.90;;
76939;SDS011;65885;55.848;35.916;2023-04-03T10:24:34;7.85;;;4.15;;
76939;SDS011;65885;55.848;35.916;2023-04-03T10:27:09;6.35;;;4.25;;
76939;SDS011;65885;55.848;35.916;2023-04-03T10:29:43;7.10;;;4.10;;
76939;SDS011;65885;55.848;35.916;2023-04-03T10:32:22;6.93;;;3.85;;
76939;SDS011;65885;55.848;35.916;2023-04-03T10:35:01;8.07;;;4.65;;
76939;SDS011;65885;55.848;35.916;2023-04-03T10:37:35;6.65;;;3.97;;
76939;SDS011;65885;55.848;35.916;2023-04-03T10:40:15;7.00;;;4.13;;
76939;SDS011;65885;55.848;35.916;2023-04-03T10:42:50;6.75;;;4.32;;
76939;SDS011;65885;55.848;35.916;2023-04-03T10:45:25;8.15;;;4.50;;
76939;SDS011;65885;55.848;35.916;2023-04-03T10:47:59;6.43;;;3.95;;
76939;SDS011;65885;55.848;35.916;2023-04-03T10:50:36;7.70;;;4.57;;
76939;SDS011;65885;55.848;35.916;2023-04-03T10:53:12;7.57;;;3.78;;
76939;SDS011;65885;55.848;35.916;2023-04-03T10:55:50;8.30;;;4.93;;
76939;SDS011;65885;55.848;35.916;2023-04-03T10:58:26;8.48;;;4.85;;
76939;SDS011;65885;55.848;35.916;2023-04-03T11:01:02;7.82;;;4.68;;
76939;SDS011;65885;55.848;35.916;2023-04-03T11:03:35;7.03;;;4.20;;
76939;SDS011;65885;55.848;35.916;2023-04-03T11:06:07;6.53;;;4.13;;
76939;SDS011;65885;55.848;35.916;2023-04-03T11:08:38;7.88;;;4.50;;
76939;SDS011;65885;55.848;35.916;2023-04-03T11:11:12;6.53;;;4.00;;
76939;SDS011;65885;55.848;35.916;2023-04-03T11:13:43;6.70;;;4.30;;
76939;SDS011;65885;55.848;35.916;2023-04-03T11:16:20;9.88;;;4.95;;
76939;SDS011;65885;55.848;35.916;2023-04-03T11:18:52;6.80;;;4.47;;
76939;SDS011;65885;55.848;35.916;2023-04-03T11:21:28;9.23;;;5.25;;
76939;SDS011;65885;55.848;35.916;2023-04-03T11:24:00;7.90;;;4.63;;
76939;SDS011;65885;55.848;35.916;2023-04-03T11:26:31;9.25;;;5.40;;
76939;SDS011;65885;55.848;35.916;2023-04-03T11:29:07;8.45;;;4.90;;
76939;SDS011;65885;55.848;35.916;2023-04-03T11:31:44;8.50;;;4.80;;
76939;SDS011;65885;55.848;35.916;2023-04-03T11:34:31;8.10;;;5.38;;
76939;SDS011;65885;55.848;35.916;2023-04-03T11:37:05;9.90;;;5.40;;
76939;SDS011;65885;55.848;35.916;2023-04-03T11:39:41;8.13;;;5.15;;
76939;SDS011;65885;55.848;35.916;2023-04-03T11:42:22;11.13;;;5.75;;
76939;SDS011;65885;55.848;35.916;2023-04-03T11:47:53;10.05;;;5.65;;
76939;SDS011;65885;55.848;35.916;2023-04-03T11:50:32;9.50;;;5.18;;
76939;SDS011;65885;55.848;35.916;2023-04-03T11:53:27;8.80;;;4.75;;
76939;SDS011;65885;55.848;35.916;2023-04-03T11:56:03;8.60;;;5.50;;
76939;SDS011;65885;55.848;35.916;2023-04-03T12:01:51;10.48;;;5.70;;
76939;SDS011;65885;55.848;35.916;2023-04-03T12:04:22;9.18;;;5.63;;
76939;SDS011;65885;55.848;35.916;2023-04-03T12:06:59;11.82;;;5.38;;
76939;SDS011;65885;55.848;35.916;2023-04-03T12:12:43;11.10;;;6.03;;
76939;SDS011;65885;55.848;35.916;2023-04-03T12:24:37;11.43;;;6.97;;
76939;SDS011;65885;55.848;35.916;2023-04-03T12:27:21;9.77;;;6.28;;
76939;SDS011;65885;55.848;35.916;2023-04-03T12:29:53;10.88;;;6.40;;
76939;SDS011;65885;55.848;35.916;2023-04-03T12:32:37;9.05;;;5.68;;
76939;SDS011;65885;55.848;35.916;2023-04-03T12:35:15;11.77;;;6.43;;
76939;SDS011;65885;55.848;35.916;2023-04-03T12:41:08;11.07;;;6.25;;
76939;SDS011;65885;55.848;35.916;2023-04-03T12:43:49;10.95;;;6.63;;
76939;SDS011;65885;55.848;35.916;2023-04-03T12:46:26;10.43;;;6.40;;
76939;SDS011;65885;55.848;35.916;2023-04-03T12:49:05;10.52;;;6.32;;
76939;SDS011;65885;55.848;35.916;2023-04-03T12:51:47;9.18;;;6.20;;
76939;SDS011;65885;55.848;35.916;2023-04-03T12:54:16;9.65;;;5.60;;
76939;SDS011;65885;55.848;35.916;2023-04-03T12:56:48;10.10;;;6.30;;
76939;SDS011;65885;55.848;35.916;2023-04-03T12:59:16;10.15;;;5.45;;
76939;SDS011;65885;55.848;35.916;2023-04-03T13:01:52;10.05;;;6.30;;
76939;SDS011;65885;55.848;35.916;2023-04-03T13:04:21;7.35;;;5.03;;
76939;SDS011;65885;55.848;35.916;2023-04-03T13:06:49;11.00;;;6.00;;
76939;SDS011;65885;55.848;35.916;2023-04-03T13:09:21;9.75;;;5.93;;
76939;SDS011;65885;55.848;35.916;2023-04-03T13:11:56;10.30;;;6.10;;
76939;SDS011;65885;55.848;35.916;2023-04-03T13:14:27;8.80;;;5.95;;
76939;SDS011;65885;55.848;35.916;2023-04-03T13:16:56;8.90;;;6.13;;
76939;SDS011;65885;55.848;35.916;2023-04-03T13:19:25;10.55;;;5.97;;
76939;SDS011;65885;55.848;35.916;2023-04-03T13:21:54;11.35;;;5.72;;
76939;SDS011;65885;55.848;35.916;2023-04-03T13:24:26;10.57;;;6.78;;
76939;SDS011;65885;55.848;35.916;2023-04-03T13:26:56;10.43;;;5.63;;
76939;SDS011;65885;55.848;35.916;2023-04-03T13:29:26;9.30;;;6.00;;
76939;SDS011;65885;55.848;35.916;2023-04-03T13:31:55;9.55;;;5.43;;
76939;SDS011;65885;55.848;35.916;2023-04-03T13:34:23;11.02;;;6.68;;
76939;SDS011;65885;55.848;35.916;2023-04-03T13:36:57;8.65;;;5.82;;
76939;SDS011;65885;55.848;35.916;2023-04-03T13:39:26;10.43;;;6.70;;
76939;SDS011;65885;55.848;35.916;2023-04-03T13:41:55;9.65;;;6.15;;
76939;SDS011;65885;55.848;35.916;2023-04-03T13:44:29;10.77;;;6.22;;
76939;SDS011;65885;55.848;35.916;2023-04-03T13:47:01;9.27;;;5.32;;
76939;SDS011;65885;55.848;35.916;2023-04-03T13:49:45;9.40;;;5.68;;
76939;SDS011;65885;55.848;35.916;2023-04-03T13:52:32;9.57;;;5.85;;
76939;SDS011;65885;55.848;35.916;2023-04-03T13:55:14;8.88;;;5.38;;
76939;SDS011;65885;55.848;35.916;2023-04-03T13:57:53;9.95;;;5.88;;
76939;SDS011;65885;55.848;35.916;2023-04-03T14:00:28;9.98;;;6.00;;
76939;SDS011;65885;55.848;35.916;2023-04-03T14:02:58;9.38;;;5.75;;
76939;SDS011;65885;55.848;35.916;2023-04-03T14:05:26;9.68;;;5.40;;
76939;SDS011;65885;55.848;35.916;2023-04-03T14:07:53;10.30;;;5.68;;
76939;SDS011;65885;55.848;35.916;2023-04-03T14:10:22;10.35;;;6.85;;
76939;SDS011;65885;55.848;35.916;2023-04-03T14:12:49;11.60;;;6.53;;
76939;SDS011;65885;55.848;35.916;2023-04-03T14:15:20;9.93;;;5.75;;
76939;SDS011;65885;55.848;35.916;2023-04-03T14:17:50;8.77;;;5.43;;
76939;SDS011;65885;55.848;35.916;2023-04-03T14:20:19;10.48;;;6.20;;
76939;SDS011;65885;55.848;35.916;2023-04-03T14:22:48;11.27;;;6.00;;
76939;SDS011;65885;55.848;35.916;2023-04-03T14:25:16;9.00;;;5.65;;
76939;SDS011;65885;55.848;35.916;2023-04-03T14:27:45;8.70;;;5.70;;
76939;SDS011;65885;55.848;35.916;2023-04-03T14:30:17;9.65;;;5.45;;
76939;SDS011;65885;55.848;35.916;2023-04-03T14:32:48;8.60;;;5.07;;
76939;SDS011;65885;55.848;35.916;2023-04-03T14:35:16;9.20;;;5.20;;
76939;SDS011;65885;55.848;35.916;2023-04-03T14:37:45;9.77;;;5.70;;
76939;SDS011;65885;55.848;35.916;2023-04-03T14:40:14;9.48;;;6.03;;
76939;SDS011;65885;55.848;35.916;2023-04-03T14:42:43;10.73;;;5.85;;
76939;SDS011;65885;55.848;35.916;2023-04-03T14:45:12;9.07;;;5.30;;
76939;SDS011;65885;55.848;35.916;2023-04-03T14:47:42;10.75;;;5.75;;
76939;SDS011;65885;55.848;35.916;2023-04-03T14:50:15;9.95;;;5.63;;
76939;SDS011;65885;55.848;35.916;2023-04-03T14:52:47;9.18;;;5.53;;
76939;SDS011;65885;55.848;35.916;2023-04-03T14:55:17;8.90;;;5.43;;
76939;SDS011;65885;55.848;35.916;2023-04-03T14:57:46;9.45;;;5.00;;
76939;SDS011;65885;55.848;35.916;2023-04-03T15:00:16;8.82;;;5.65;;
76939;SDS011;65885;55.848;35.916;2023-04-03T15:02:47;8.88;;;5.43;;
76939;SDS011;65885;55.848;35.916;2023-04-03T15:05:14;9.18;;;5.25;;
76939;SDS011;65885;55.848;35.916;2023-04-03T15:07:43;11.75;;;6.10;;
76939;SDS011;65885;55.848;35.916;2023-04-03T15:10:15;9.07;;;5.45;;
76939;SDS011;65885;55.848;35.916;2023-04-03T15:12:46;9.80;;;5.93;;
76939;SDS011;65885;55.848;35.916;2023-04-03T15:15:14;10.35;;;5.78;;
76939;SDS011;65885;55.848;35.916;2023-04-03T15:17:43;10.07;;;5.82;;
76939;SDS011;65885;55.848;35.916;2023-04-03T15:20:15;9.48;;;5.68;;
76939;SDS011;65885;55.848;35.916;2023-04-03T15:22:44;11.50;;;6.03;;